sensor_id;sensor_type;location;lat;lon;timestamp;P1;durP1;ratioP1;P2;durP2;ratioP2
18188;SDS011;9219;50.396;8.546;2023-01-10T00:01:05;7.07;;;4.10;;
18188;SDS011;9219;50.396;8.546;2023-01-10T00:03:33;8.93;;;4.93;;
18188;SDS011;9219;50.396;8.546;2023-01-10T00:06:01;14.73;;;4.43;;
18188;SDS011;9219;50.396;8.546;2023-01-10T00:08:28;8.43;;;5.43;;
18188;SDS011;9219;50.396;8.546;2023-01-10T00:10:56;9.93;;;4.93;;
18188;SDS011;9219;50.396;8.546;2023-01-10T00:13:44;11.30;;;5.57;;
18188;SDS011;9219;50.396;8.546;2023-01-10T00:16:11;14.60;;;5.97;;
18188;SDS011;9219;50.396;8.546;2023-01-10T00:18:39;8.77;;;4.33;;
18188;SDS011;9219;50.396;8.546;2023-01-10T00:24:02;9.10;;;5.30;;
18188;SDS011;9219;50.396;8.546;2023-01-10T00:26:42;8.13;;;5.27;;
18188;SDS011;9219;50.396;8.546;2023-01-10T00:29:13;12.80;;;4.17;;
18188;SDS011;9219;50.396;8.546;2023-01-10T00:31:41;10.20;;;4.93;;
18188;SDS011;9219;50.396;8.546;2023-01-10T00:34:09;7.67;;;4.87;;
18188;SDS011;9219;50.396;8.546;2023-01-10T00:36:37;6.77;;;4.00;;
18188;SDS011;9219;50.396;8.546;2023-01-10T00:39:07;14.70;;;5.80;;
18188;SDS011;9219;50.396;8.546;2023-01-10T00:41:38;8.33;;;5.10;;
18188;SDS011;9219;50.396;8.546;2023-01-10T00:51:50;12.97;;;6.60;;
18188;SDS011;9219;50.396;8.546;2023-01-10T00:54:19;7.67;;;5.10;;
18188;SDS011;9219;50.396;8.546;2023-01-10T00:56:48;11.60;;;4.63;;
18188;SDS011;9219;50.396;8.546;2023-01-10T00:59:30;11.70;;;5.17;;
18188;SDS011;9219;50.396;8.546;2023-01-10T01:01:58;11.33;;;5.13;;
18188;SDS011;9219;50.396;8.546;2023-01-10T01:04:26;8.87;;;4.87;;
18188;SDS011;9219;50.396;8.546;2023-01-10T01:07:00;17.07;;;6.90;;
18188;SDS011;9219;50.396;8.546;2023-01-10T01:09:29;13.03;;;4.47;;
18188;SDS011;9219;50.396;8.546;2023-01-10T01:12:03;9.33;;;5.47;;
18188;SDS011;9219;50.396;8.546;2023-01-10T01:19:32;15.67;;;6.33;;
18188;SDS011;9219;50.396;8.546;2023-01-10T01:21:59;9.47;;;5.17;;
18188;SDS011;9219;50.396;8.546;2023-01-10T01:24:28;14.70;;;4.73;;
18188;SDS011;9219;50.396;8.546;2023-01-10T01:26:56;13.67;;;5.03;;
18188;SDS011;9219;50.396;8.546;2023-01-10T01:29:24;9.53;;;5.63;;
18188;SDS011;9219;50.396;8.546;2023-01-10T01:32:07;12.37;;;6.03;;
18188;SDS011;9219;50.396;8.546;2023-01-10T01:34:36;19.53;;;7.03;;
18188;SDS011;9219;50.396;8.546;2023-01-10T01:42:13;13.60;;;5.63;;
18188;SDS011;9219;50.396;8.546;2023-01-10T01:45:02;9.93;;;4.80;;
18188;SDS011;9219;50.396;8.546;2023-01-10T01:47:55;13.93;;;6.17;;
18188;SDS011;9219;50.396;8.546;2023-01-10T01:50:28;10.80;;;5.73;;
18188;SDS011;9219;50.396;8.546;2023-01-10T01:53:01;11.40;;;5.53;;
18188;SDS011;9219;50.396;8.546;2023-01-10T01:55:32;11.73;;;6.23;;
18188;SDS011;9219;50.396;8.546;2023-01-10T01:58:04;17.63;;;6.87;;
18188;SDS011;9219;50.396;8.546;2023-01-10T02:05:41;10.00;;;5.70;;
18188;SDS011;9219;50.396;8.546;2023-01-10T02:08:11;10.00;;;5.00;;
18188;SDS011;9219;50.396;8.546;2023-01-10T02:10:40;10.57;;;4.20;;
18188;SDS011;9219;50.396;8.546;2023-01-10T02:13:15;10.47;;;4.60;;
18188;SDS011;9219;50.396;8.546;2023-01-10T02:15:44;15.53;;;6.40;;
18188;SDS011;9219;50.396;8.546;2023-01-10T02:18:11;20.47;;;8.17;;
18188;SDS011;9219;50.396;8.546;2023-01-10T02:20:45;7.47;;;4.50;;
18188;SDS011;9219;50.396;8.546;2023-01-10T02:28:56;9.77;;;5.87;;
18188;SDS011;9219;50.396;8.546;2023-01-10T02:34:57;18.37;;;6.27;;
18188;SDS011;9219;50.396;8.546;2023-01-10T02:37:38;11.57;;;7.23;;
18188;SDS011;9219;50.396;8.546;2023-01-10T02:40:13;15.10;;;7.47;;
18188;SDS011;9219;50.396;8.546;2023-01-10T02:42:49;19.73;;;7.80;;
18188;SDS011;9219;50.396;8.546;2023-01-10T02:45:24;11.97;;;6.90;;
18188;SDS011;9219;50.396;8.546;2023-01-10T02:53:19;14.27;;;5.87;;
18188;SDS011;9219;50.396;8.546;2023-01-10T02:59:10;12.53;;;4.83;;
18188;SDS011;9219;50.396;8.546;2023-01-10T03:01:56;14.23;;;6.07;;
18188;SDS011;9219;50.396;8.546;2023-01-10T03:04:31;12.63;;;5.73;;
18188;SDS011;9219;50.396;8.546;2023-01-10T03:07:10;11.63;;;4.70;;
18188;SDS011;9219;50.396;8.546;2023-01-10T03:09:48;12.57;;;4.50;;
18188;SDS011;9219;50.396;8.546;2023-01-10T03:12:20;8.77;;;4.97;;
18188;SDS011;9219;50.396;8.546;2023-01-10T03:17:32;15.30;;;5.33;;
18188;SDS011;9219;50.396;8.546;2023-01-10T03:20:02;11.20;;;5.03;;
18188;SDS011;9219;50.396;8.546;2023-01-10T03:22:30;9.27;;;4.70;;
18188;SDS011;9219;50.396;8.546;2023-01-10T03:25:03;17.00;;;4.70;;
18188;SDS011;9219;50.396;8.546;2023-01-10T03:27:37;8.73;;;3.77;;
18188;SDS011;9219;50.396;8.546;2023-01-10T03:30:12;10.10;;;4.73;;
18188;SDS011;9219;50.396;8.546;2023-01-10T03:32:50;9.03;;;3.47;;
18188;SDS011;9219;50.396;8.546;2023-01-10T03:35:18;11.17;;;3.97;;
18188;SDS011;9219;50.396;8.546;2023-01-10T03:45:31;11.73;;;3.87;;
18188;SDS011;9219;50.396;8.546;2023-01-10T03:48:04;9.77;;;4.23;;
18188;SDS011;9219;50.396;8.546;2023-01-10T03:50:34;12.43;;;3.47;;
18188;SDS011;9219;50.396;8.546;2023-01-10T03:53:05;8.07;;;3.50;;
18188;SDS011;9219;50.396;8.546;2023-01-10T03:55:32;11.30;;;3.80;;
18188;SDS011;9219;50.396;8.546;2023-01-10T03:58:01;12.63;;;3.70;;
18188;SDS011;9219;50.396;8.546;2023-01-10T04:00:30;11.33;;;4.00;;
18188;SDS011;9219;50.396;8.546;2023-01-10T04:02:57;11.00;;;4.23;;
18188;SDS011;9219;50.396;8.546;2023-01-10T04:10:29;11.13;;;4.10;;
18188;SDS011;9219;50.396;8.546;2023-01-10T04:12:58;10.47;;;3.33;;
18188;SDS011;9219;50.396;8.546;2023-01-10T04:15:26;16.33;;;4.40;;
18188;SDS011;9219;50.396;8.546;2023-01-10T04:17:54;9.60;;;3.60;;
18188;SDS011;9219;50.396;8.546;2023-01-10T04:20:22;9.00;;;3.93;;
18188;SDS011;9219;50.396;8.546;2023-01-10T04:22:51;11.17;;;3.43;;
18188;SDS011;9219;50.396;8.546;2023-01-10T04:25:19;12.83;;;3.90;;
18188;SDS011;9219;50.396;8.546;2023-01-10T04:27:48;10.80;;;4.07;;
18188;SDS011;9219;50.396;8.546;2023-01-10T04:30:16;7.73;;;3.40;;
18188;SDS011;9219;50.396;8.546;2023-01-10T04:37:48;14.07;;;4.53;;
18188;SDS011;9219;50.396;8.546;2023-01-10T04:40:16;10.23;;;5.10;;
18188;SDS011;9219;50.396;8.546;2023-01-10T04:42:44;10.97;;;4.57;;
18188;SDS011;9219;50.396;8.546;2023-01-10T04:45:11;13.70;;;4.60;;
18188;SDS011;9219;50.396;8.546;2023-01-10T04:47:42;11.17;;;4.47;;
18188;SDS011;9219;50.396;8.546;2023-01-10T04:50:15;8.13;;;3.10;;
18188;SDS011;9219;50.396;8.546;2023-01-10T04:52:42;10.63;;;4.47;;
18188;SDS011;9219;50.396;8.546;2023-01-10T04:55:11;19.23;;;3.87;;
18188;SDS011;9219;50.396;8.546;2023-01-10T05:02:43;16.47;;;3.70;;
18188;SDS011;9219;50.396;8.546;2023-01-10T05:05:13;10.47;;;4.00;;
18188;SDS011;9219;50.396;8.546;2023-01-10T05:07:40;10.20;;;3.83;;
18188;SDS011;9219;50.396;8.546;2023-01-10T05:10:11;16.97;;;3.67;;
18188;SDS011;9219;50.396;8.546;2023-01-10T05:12:39;8.83;;;4.37;;
18188;SDS011;9219;50.396;8.546;2023-01-10T05:15:07;15.40;;;4.50;;
18188;SDS011;9219;50.396;8.546;2023-01-10T05:17:35;13.27;;;3.10;;
18188;SDS011;9219;50.396;8.546;2023-01-10T05:20:04;11.63;;;4.13;;
18188;SDS011;9219;50.396;8.546;2023-01-10T05:30:01;11.07;;;3.67;;
18188;SDS011;9219;50.396;8.546;2023-01-10T05:32:28;10.90;;;3.60;;
18188;SDS011;9219;50.396;8.546;2023-01-10T05:34:55;16.77;;;6.03;;
18188;SDS011;9219;50.396;8.546;2023-01-10T05:37:23;9.93;;;3.87;;
18188;SDS011;9219;50.396;8.546;2023-01-10T05:39:51;10.93;;;3.90;;
18188;SDS011;9219;50.396;8.546;2023-01-10T05:42:18;14.13;;;3.63;;
18188;SDS011;9219;50.396;8.546;2023-01-10T05:44:45;13.50;;;4.20;;
18188;SDS011;9219;50.396;8.546;2023-01-10T05:47:14;13.80;;;4.30;;
18188;SDS011;9219;50.396;8.546;2023-01-10T05:54:47;19.30;;;4.77;;
18188;SDS011;9219;50.396;8.546;2023-01-10T05:57:15;9.33;;;3.87;;
18188;SDS011;9219;50.396;8.546;2023-01-10T05:59:42;17.97;;;4.23;;
18188;SDS011;9219;50.396;8.546;2023-01-10T06:02:21;17.47;;;5.03;;
18188;SDS011;9219;50.396;8.546;2023-01-10T06:04:53;15.40;;;3.90;;
18188;SDS011;9219;50.396;8.546;2023-01-10T06:07:27;10.07;;;4.57;;
18188;SDS011;9219;50.396;8.546;2023-01-10T06:09:56;8.43;;;3.50;;
18188;SDS011;9219;50.396;8.546;2023-01-10T06:12:23;10.37;;;3.60;;
18188;SDS011;9219;50.396;8.546;2023-01-10T06:19:55;6.37;;;2.77;;
18188;SDS011;9219;50.396;8.546;2023-01-10T06:22:23;10.83;;;3.13;;
18188;SDS011;9219;50.396;8.546;2023-01-10T06:24:52;19.23;;;3.97;;
18188;SDS011;9219;50.396;8.546;2023-01-10T06:27:20;14.23;;;5.23;;
18188;SDS011;9219;50.396;8.546;2023-01-10T06:29:49;11.80;;;3.63;;
18188;SDS011;9219;50.396;8.546;2023-01-10T06:32:16;9.50;;;3.53;;
18188;SDS011;9219;50.396;8.546;2023-01-10T06:34:43;9.97;;;4.37;;
18188;SDS011;9219;50.396;8.546;2023-01-10T06:37:13;11.93;;;2.97;;
18188;SDS011;9219;50.396;8.546;2023-01-10T06:45:21;13.27;;;3.37;;
18188;SDS011;9219;50.396;8.546;2023-01-10T06:47:57;13.77;;;2.97;;
18188;SDS011;9219;50.396;8.546;2023-01-10T06:50:54;10.30;;;3.00;;
18188;SDS011;9219;50.396;8.546;2023-01-10T06:53:22;13.37;;;2.93;;
18188;SDS011;9219;50.396;8.546;2023-01-10T06:55:50;6.50;;;2.57;;
18188;SDS011;9219;50.396;8.546;2023-01-10T06:58:27;16.70;;;4.83;;
18188;SDS011;9219;50.396;8.546;2023-01-10T07:00:56;9.80;;;3.47;;
18188;SDS011;9219;50.396;8.546;2023-01-10T07:03:23;16.90;;;3.60;;
18188;SDS011;9219;50.396;8.546;2023-01-10T07:08:44;6.53;;;2.73;;
18188;SDS011;9219;50.396;8.546;2023-01-10T07:11:14;10.57;;;3.40;;
18188;SDS011;9219;50.396;8.546;2023-01-10T07:13:43;12.73;;;2.73;;
18188;SDS011;9219;50.396;8.546;2023-01-10T07:16:11;9.87;;;3.33;;
18188;SDS011;9219;50.396;8.546;2023-01-10T07:18:41;9.73;;;3.83;;
18188;SDS011;9219;50.396;8.546;2023-01-10T07:21:09;10.87;;;2.93;;
18188;SDS011;9219;50.396;8.546;2023-01-10T07:23:37;16.00;;;3.30;;
18188;SDS011;9219;50.396;8.546;2023-01-10T07:26:06;14.83;;;4.33;;
18188;SDS011;9219;50.396;8.546;2023-01-10T07:36:35;10.57;;;3.10;;
18188;SDS011;9219;50.396;8.546;2023-01-10T07:39:04;11.77;;;3.33;;
18188;SDS011;9219;50.396;8.546;2023-01-10T07:41:33;9.70;;;2.97;;
18188;SDS011;9219;50.396;8.546;2023-01-10T07:44:01;15.37;;;3.40;;
18188;SDS011;9219;50.396;8.546;2023-01-10T07:46:28;14.73;;;3.43;;
18188;SDS011;9219;50.396;8.546;2023-01-10T07:48:56;10.10;;;2.80;;
18188;SDS011;9219;50.396;8.546;2023-01-10T07:59:22;7.80;;;2.70;;
18188;SDS011;9219;50.396;8.546;2023-01-10T08:01:50;17.67;;;2.23;;
18188;SDS011;9219;50.396;8.546;2023-01-10T08:04:19;13.17;;;2.47;;
18188;SDS011;9219;50.396;8.546;2023-01-10T08:06:48;11.93;;;2.60;;
18188;SDS011;9219;50.396;8.546;2023-01-10T08:09:16;21.00;;;4.60;;
18188;SDS011;9219;50.396;8.546;2023-01-10T08:11:44;17.33;;;3.43;;
18188;SDS011;9219;50.396;8.546;2023-01-10T08:14:12;16.97;;;3.60;;
18188;SDS011;9219;50.396;8.546;2023-01-10T08:16:41;8.57;;;2.33;;
18188;SDS011;9219;50.396;8.546;2023-01-10T08:22:04;9.30;;;2.50;;
18188;SDS011;9219;50.396;8.546;2023-01-10T08:24:32;10.40;;;2.80;;
18188;SDS011;9219;50.396;8.546;2023-01-10T08:27:05;18.27;;;2.93;;
18188;SDS011;9219;50.396;8.546;2023-01-10T08:29:32;7.60;;;2.30;;
18188;SDS011;9219;50.396;8.546;2023-01-10T08:32:03;13.90;;;2.60;;
18188;SDS011;9219;50.396;8.546;2023-01-10T08:34:30;8.30;;;2.80;;
18188;SDS011;9219;50.396;8.546;2023-01-10T08:36:58;9.30;;;2.13;;
18188;SDS011;9219;50.396;8.546;2023-01-10T08:39:27;17.37;;;2.27;;
18188;SDS011;9219;50.396;8.546;2023-01-10T08:47:01;16.50;;;3.17;;
18188;SDS011;9219;50.396;8.546;2023-01-10T08:49:29;14.83;;;3.53;;
18188;SDS011;9219;50.396;8.546;2023-01-10T08:51:56;15.20;;;2.40;;
18188;SDS011;9219;50.396;8.546;2023-01-10T08:54:23;13.70;;;3.17;;
18188;SDS011;9219;50.396;8.546;2023-01-10T08:56:51;11.00;;;2.50;;
18188;SDS011;9219;50.396;8.546;2023-01-10T08:59:19;12.50;;;2.37;;
18188;SDS011;9219;50.396;8.546;2023-01-10T09:01:48;7.53;;;2.27;;
18188;SDS011;9219;50.396;8.546;2023-01-10T09:07:44;13.30;;;2.73;;
18188;SDS011;9219;50.396;8.546;2023-01-10T09:10:13;21.37;;;2.83;;
18188;SDS011;9219;50.396;8.546;2023-01-10T09:12:40;10.80;;;2.87;;
18188;SDS011;9219;50.396;8.546;2023-01-10T09:15:20;6.17;;;2.03;;
18188;SDS011;9219;50.396;8.546;2023-01-10T09:17:47;16.97;;;2.90;;
18188;SDS011;9219;50.396;8.546;2023-01-10T09:20:15;15.10;;;2.33;;
18188;SDS011;9219;50.396;8.546;2023-01-10T09:22:44;17.57;;;3.13;;
18188;SDS011;9219;50.396;8.546;2023-01-10T09:25:12;10.90;;;2.10;;
18188;SDS011;9219;50.396;8.546;2023-01-10T09:32:45;12.77;;;2.60;;
18188;SDS011;9219;50.396;8.546;2023-01-10T09:35:15;14.83;;;2.47;;
18188;SDS011;9219;50.396;8.546;2023-01-10T09:37:43;12.40;;;2.77;;
18188;SDS011;9219;50.396;8.546;2023-01-10T09:40:12;18.07;;;2.60;;
18188;SDS011;9219;50.396;8.546;2023-01-10T09:42:48;8.77;;;2.57;;
18188;SDS011;9219;50.396;8.546;2023-01-10T09:45:27;15.10;;;2.70;;
18188;SDS011;9219;50.396;8.546;2023-01-10T09:48:05;10.50;;;3.07;;
18188;SDS011;9219;50.396;8.546;2023-01-10T09:57:57;14.90;;;3.23;;
18188;SDS011;9219;50.396;8.546;2023-01-10T10:00:32;4.13;;;1.73;;
18188;SDS011;9219;50.396;8.546;2023-01-10T10:03:09;10.80;;;2.20;;
18188;SDS011;9219;50.396;8.546;2023-01-10T10:05:47;11.93;;;2.37;;
18188;SDS011;9219;50.396;8.546;2023-01-10T10:08:21;18.10;;;2.77;;
18188;SDS011;9219;50.396;8.546;2023-01-10T10:10:51;11.80;;;3.13;;
18188;SDS011;9219;50.396;8.546;2023-01-10T10:13:32;13.13;;;2.43;;
18188;SDS011;9219;50.396;8.546;2023-01-10T10:16:08;9.00;;;2.50;;
18188;SDS011;9219;50.396;8.546;2023-01-10T10:23:58;13.73;;;2.13;;
18188;SDS011;9219;50.396;8.546;2023-01-10T10:26:45;20.40;;;2.57;;
18188;SDS011;9219;50.396;8.546;2023-01-10T10:29:25;10.10;;;3.10;;
18188;SDS011;9219;50.396;8.546;2023-01-10T10:32:22;10.17;;;1.80;;
18188;SDS011;9219;50.396;8.546;2023-01-10T10:35:21;9.03;;;2.03;;
18188;SDS011;9219;50.396;8.546;2023-01-10T10:37:54;13.70;;;2.47;;
18188;SDS011;9219;50.396;8.546;2023-01-10T10:40:29;8.57;;;2.10;;
18188;SDS011;9219;50.396;8.546;2023-01-10T10:45:36;14.90;;;3.30;;
18188;SDS011;9219;50.396;8.546;2023-01-10T10:48:11;10.13;;;2.10;;
18188;SDS011;9219;50.396;8.546;2023-01-10T10:50:46;9.53;;;1.73;;
18188;SDS011;9219;50.396;8.546;2023-01-10T10:53:18;11.13;;;1.80;;
18188;SDS011;9219;50.396;8.546;2023-01-10T10:55:45;11.53;;;2.10;;
18188;SDS011;9219;50.396;8.546;2023-01-10T10:58:14;8.20;;;2.10;;
18188;SDS011;9219;50.396;8.546;2023-01-10T11:00:43;16.57;;;2.30;;
18188;SDS011;9219;50.396;8.546;2023-01-10T11:03:15;7.83;;;1.87;;
18188;SDS011;9219;50.396;8.546;2023-01-10T11:14:05;8.17;;;1.73;;
18188;SDS011;9219;50.396;8.546;2023-01-10T11:16:35;13.67;;;2.87;;
18188;SDS011;9219;50.396;8.546;2023-01-10T11:19:14;7.83;;;1.50;;
18188;SDS011;9219;50.396;8.546;2023-01-10T11:21:47;10.67;;;2.10;;
18188;SDS011;9219;50.396;8.546;2023-01-10T11:24:25;15.47;;;2.17;;
18188;SDS011;9219;50.396;8.546;2023-01-10T11:26:55;9.50;;;2.30;;
18188;SDS011;9219;50.396;8.546;2023-01-10T11:29:29;13.03;;;2.13;;
18188;SDS011;9219;50.396;8.546;2023-01-10T11:32:07;5.30;;;1.60;;
18188;SDS011;9219;50.396;8.546;2023-01-10T11:42:25;14.70;;;4.13;;
18188;SDS011;9219;50.396;8.546;2023-01-10T11:44:55;8.77;;;2.00;;
18188;SDS011;9219;50.396;8.546;2023-01-10T11:47:48;13.80;;;1.73;;
18188;SDS011;9219;50.396;8.546;2023-01-10T11:50:21;14.37;;;3.07;;
18188;SDS011;9219;50.396;8.546;2023-01-10T11:52:52;8.00;;;1.67;;
18188;SDS011;9219;50.396;8.546;2023-01-10T11:55:21;10.03;;;2.03;;
18188;SDS011;9219;50.396;8.546;2023-01-10T11:57:58;8.10;;;2.40;;
18188;SDS011;9219;50.396;8.546;2023-01-10T12:00:39;8.70;;;1.83;;
18188;SDS011;9219;50.396;8.546;2023-01-10T12:11:04;10.20;;;2.17;;
18188;SDS011;9219;50.396;8.546;2023-01-10T12:13:42;10.00;;;2.33;;
18188;SDS011;9219;50.396;8.546;2023-01-10T12:16:16;7.90;;;1.70;;
18188;SDS011;9219;50.396;8.546;2023-01-10T12:18:47;10.03;;;1.63;;
18188;SDS011;9219;50.396;8.546;2023-01-10T12:21:17;18.37;;;2.43;;
18188;SDS011;9219;50.396;8.546;2023-01-10T12:23:52;7.77;;;1.77;;
18188;SDS011;9219;50.396;8.546;2023-01-10T12:26:29;10.47;;;2.70;;
18188;SDS011;9219;50.396;8.546;2023-01-10T12:34:16;8.13;;;1.67;;
18188;SDS011;9219;50.396;8.546;2023-01-10T12:36:50;5.47;;;1.70;;
18188;SDS011;9219;50.396;8.546;2023-01-10T12:39:26;9.80;;;2.07;;
18188;SDS011;9219;50.396;8.546;2023-01-10T12:42:09;14.57;;;2.00;;
18188;SDS011;9219;50.396;8.546;2023-01-10T12:45:02;10.57;;;2.40;;
18188;SDS011;9219;50.396;8.546;2023-01-10T12:47:47;9.73;;;2.57;;
18188;SDS011;9219;50.396;8.546;2023-01-10T12:50:34;8.57;;;2.30;;
18188;SDS011;9219;50.396;8.546;2023-01-10T12:58:27;8.10;;;2.83;;
18188;SDS011;9219;50.396;8.546;2023-01-10T13:01:02;13.03;;;3.20;;
18188;SDS011;9219;50.396;8.546;2023-01-10T13:03:31;13.07;;;2.10;;
18188;SDS011;9219;50.396;8.546;2023-01-10T13:06:02;13.90;;;2.30;;
18188;SDS011;9219;50.396;8.546;2023-01-10T13:08:32;9.57;;;2.50;;
18188;SDS011;9219;50.396;8.546;2023-01-10T13:11:07;10.83;;;2.50;;
18188;SDS011;9219;50.396;8.546;2023-01-10T13:13:41;12.93;;;2.17;;
18188;SDS011;9219;50.396;8.546;2023-01-10T13:24:18;10.40;;;2.27;;
18188;SDS011;9219;50.396;8.546;2023-01-10T13:26:52;21.27;;;2.50;;
18188;SDS011;9219;50.396;8.546;2023-01-10T13:29:25;13.10;;;2.63;;
18188;SDS011;9219;50.396;8.546;2023-01-10T13:31:59;5.40;;;1.87;;
18188;SDS011;9219;50.396;8.546;2023-01-10T13:34:31;12.40;;;3.50;;
18188;SDS011;9219;50.396;8.546;2023-01-10T13:37:03;9.47;;;2.60;;
18188;SDS011;9219;50.396;8.546;2023-01-10T13:51:16;10.23;;;2.07;;
18188;SDS011;9219;50.396;8.546;2023-01-10T13:54:11;12.93;;;2.43;;
18188;SDS011;9219;50.396;8.546;2023-01-10T14:00:43;10.20;;;2.00;;
18188;SDS011;9219;50.396;8.546;2023-01-10T14:03:54;11.57;;;2.07;;
18188;SDS011;9219;50.396;8.546;2023-01-10T14:15:20;9.17;;;2.27;;
18188;SDS011;9219;50.396;8.546;2023-01-10T14:17:55;15.70;;;2.53;;
18188;SDS011;9219;50.396;8.546;2023-01-10T14:20:28;15.07;;;2.93;;
18188;SDS011;9219;50.396;8.546;2023-01-10T14:23:05;11.97;;;3.03;;
18188;SDS011;9219;50.396;8.546;2023-01-10T14:25:37;13.23;;;3.20;;
18188;SDS011;9219;50.396;8.546;2023-01-10T14:28:14;11.57;;;2.20;;
18188;SDS011;9219;50.396;8.546;2023-01-10T14:30:58;6.27;;;2.07;;
18188;SDS011;9219;50.396;8.546;2023-01-10T14:33:31;17.30;;;3.17;;
18188;SDS011;9219;50.396;8.546;2023-01-10T14:41:28;14.00;;;2.23;;
18188;SDS011;9219;50.396;8.546;2023-01-10T14:44:06;14.30;;;3.73;;
18188;SDS011;9219;50.396;8.546;2023-01-10T14:46:46;14.60;;;2.93;;
18188;SDS011;9219;50.396;8.546;2023-01-10T14:49:22;10.00;;;2.87;;
18188;SDS011;9219;50.396;8.546;2023-01-10T14:51:52;14.43;;;3.80;;
18188;SDS011;9219;50.396;8.546;2023-01-10T14:54:26;17.03;;;3.00;;
18188;SDS011;9219;50.396;8.546;2023-01-10T14:56:56;9.97;;;2.97;;
18188;SDS011;9219;50.396;8.546;2023-01-10T15:07:21;18.50;;;3.53;;
18188;SDS011;9219;50.396;8.546;2023-01-10T15:09:51;12.20;;;3.73;;
18188;SDS011;9219;50.396;8.546;2023-01-10T15:12:22;15.87;;;4.20;;
18188;SDS011;9219;50.396;8.546;2023-01-10T15:14:57;25.43;;;4.47;;
18188;SDS011;9219;50.396;8.546;2023-01-10T15:17:32;16.03;;;4.07;;
18188;SDS011;9219;50.396;8.546;2023-01-10T15:20:03;19.43;;;3.73;;
18188;SDS011;9219;50.396;8.546;2023-01-10T15:22:39;20.73;;;5.57;;
18188;SDS011;9219;50.396;8.546;2023-01-10T15:31:04;11.40;;;3.77;;
18188;SDS011;9219;50.396;8.546;2023-01-10T15:33:35;15.93;;;4.47;;
18188;SDS011;9219;50.396;8.546;2023-01-10T15:36:04;16.97;;;4.53;;
18188;SDS011;9219;50.396;8.546;2023-01-10T15:38:40;14.47;;;5.00;;
18188;SDS011;9219;50.396;8.546;2023-01-10T15:41:15;17.30;;;3.73;;
18188;SDS011;9219;50.396;8.546;2023-01-10T15:43:47;15.80;;;3.90;;
18188;SDS011;9219;50.396;8.546;2023-01-10T15:46:21;9.30;;;3.03;;
18188;SDS011;9219;50.396;8.546;2023-01-10T15:53:59;12.67;;;3.80;;
18188;SDS011;9219;50.396;8.546;2023-01-10T15:56:33;16.17;;;3.87;;
18188;SDS011;9219;50.396;8.546;2023-01-10T15:59:03;10.73;;;2.83;;
18188;SDS011;9219;50.396;8.546;2023-01-10T16:01:54;18.73;;;3.23;;
18188;SDS011;9219;50.396;8.546;2023-01-10T16:04:25;16.07;;;3.57;;
18188;SDS011;9219;50.396;8.546;2023-01-10T16:07:03;23.90;;;6.10;;
18188;SDS011;9219;50.396;8.546;2023-01-10T16:09:35;17.20;;;3.13;;
18188;SDS011;9219;50.396;8.546;2023-01-10T16:17:11;10.63;;;2.93;;
18188;SDS011;9219;50.396;8.546;2023-01-10T16:19:40;17.27;;;3.20;;
18188;SDS011;9219;50.396;8.546;2023-01-10T16:22:11;21.80;;;3.17;;
18188;SDS011;9219;50.396;8.546;2023-01-10T16:24:46;12.93;;;2.83;;
18188;SDS011;9219;50.396;8.546;2023-01-10T16:27:21;27.60;;;4.17;;
18188;SDS011;9219;50.396;8.546;2023-01-10T16:29:52;14.07;;;3.20;;
18188;SDS011;9219;50.396;8.546;2023-01-10T16:32:24;17.87;;;2.73;;
18188;SDS011;9219;50.396;8.546;2023-01-10T16:42:56;28.27;;;5.03;;
18188;SDS011;9219;50.396;8.546;2023-01-10T16:45:43;20.97;;;3.90;;
18188;SDS011;9219;50.396;8.546;2023-01-10T16:48:17;16.03;;;3.67;;
18188;SDS011;9219;50.396;8.546;2023-01-10T16:50:48;21.93;;;4.10;;
18188;SDS011;9219;50.396;8.546;2023-01-10T16:53:20;20.20;;;4.33;;
18188;SDS011;9219;50.396;8.546;2023-01-10T16:55:49;14.20;;;3.37;;
18188;SDS011;9219;50.396;8.546;2023-01-10T16:58:22;20.60;;;5.47;;
18188;SDS011;9219;50.396;8.546;2023-01-10T17:06:01;14.47;;;4.23;;
18188;SDS011;9219;50.396;8.546;2023-01-10T17:08:31;7.47;;;3.20;;
18188;SDS011;9219;50.396;8.546;2023-01-10T17:11:00;26.43;;;4.53;;
18188;SDS011;9219;50.396;8.546;2023-01-10T17:13:33;16.93;;;3.63;;
18188;SDS011;9219;50.396;8.546;2023-01-10T17:16:04;19.87;;;4.07;;
18188;SDS011;9219;50.396;8.546;2023-01-10T17:18:37;25.77;;;4.23;;
18188;SDS011;9219;50.396;8.546;2023-01-10T17:21:10;21.87;;;4.63;;
18188;SDS011;9219;50.396;8.546;2023-01-10T17:23:41;21.17;;;3.13;;
18188;SDS011;9219;50.396;8.546;2023-01-10T17:26:25;15.10;;;3.90;;
18188;SDS011;9219;50.396;8.546;2023-01-10T17:28:54;13.23;;;3.33;;
18188;SDS011;9219;50.396;8.546;2023-01-10T17:31:22;13.83;;;3.70;;
18188;SDS011;9219;50.396;8.546;2023-01-10T17:33:50;13.83;;;3.53;;
18188;SDS011;9219;50.396;8.546;2023-01-10T17:36:20;18.30;;;3.63;;
18188;SDS011;9219;50.396;8.546;2023-01-10T17:38:58;9.17;;;3.00;;
18188;SDS011;9219;50.396;8.546;2023-01-10T17:41:28;13.30;;;2.90;;
18188;SDS011;9219;50.396;8.546;2023-01-10T17:43:56;9.57;;;2.50;;
18188;SDS011;9219;50.396;8.546;2023-01-10T17:46:26;15.80;;;3.70;;
18188;SDS011;9219;50.396;8.546;2023-01-10T17:51:35;13.10;;;2.77;;
18188;SDS011;9219;50.396;8.546;2023-01-10T17:54:04;16.27;;;3.57;;
18188;SDS011;9219;50.396;8.546;2023-01-10T17:56:36;13.20;;;3.80;;
18188;SDS011;9219;50.396;8.546;2023-01-10T17:59:05;22.03;;;3.63;;
18188;SDS011;9219;50.396;8.546;2023-01-10T18:01:35;17.97;;;4.57;;
18188;SDS011;9219;50.396;8.546;2023-01-10T18:04:04;14.83;;;3.03;;
18188;SDS011;9219;50.396;8.546;2023-01-10T18:06:35;16.47;;;3.17;;
18188;SDS011;9219;50.396;8.546;2023-01-10T18:12:00;19.00;;;3.83;;
18188;SDS011;9219;50.396;8.546;2023-01-10T18:14:37;18.93;;;4.80;;
18188;SDS011;9219;50.396;8.546;2023-01-10T18:17:12;14.07;;;2.60;;
18188;SDS011;9219;50.396;8.546;2023-01-10T18:19:44;16.10;;;2.67;;
18188;SDS011;9219;50.396;8.546;2023-01-10T18:22:13;14.83;;;3.37;;
18188;SDS011;9219;50.396;8.546;2023-01-10T18:24:59;6.90;;;2.17;;
18188;SDS011;9219;50.396;8.546;2023-01-10T18:27:31;13.30;;;3.27;;
18188;SDS011;9219;50.396;8.546;2023-01-10T18:37:59;23.10;;;3.53;;
18188;SDS011;9219;50.396;8.546;2023-01-10T18:40:28;9.27;;;3.37;;
18188;SDS011;9219;50.396;8.546;2023-01-10T18:42:59;13.70;;;3.10;;
18188;SDS011;9219;50.396;8.546;2023-01-10T18:45:28;16.53;;;3.57;;
18188;SDS011;9219;50.396;8.546;2023-01-10T18:47:58;20.27;;;2.70;;
18188;SDS011;9219;50.396;8.546;2023-01-10T18:50:32;18.83;;;3.33;;
18188;SDS011;9219;50.396;8.546;2023-01-10T18:53:03;15.67;;;3.37;;
18188;SDS011;9219;50.396;8.546;2023-01-10T19:00:42;8.83;;;2.07;;
18188;SDS011;9219;50.396;8.546;2023-01-10T19:03:19;14.43;;;3.70;;
18188;SDS011;9219;50.396;8.546;2023-01-10T19:05:54;16.40;;;3.90;;
18188;SDS011;9219;50.396;8.546;2023-01-10T19:08:31;14.10;;;2.83;;
18188;SDS011;9219;50.396;8.546;2023-01-10T19:11:04;17.63;;;2.77;;
18188;SDS011;9219;50.396;8.546;2023-01-10T19:13:41;16.27;;;3.33;;
18188;SDS011;9219;50.396;8.546;2023-01-10T19:16:14;13.97;;;2.10;;
18188;SDS011;9219;50.396;8.546;2023-01-10T19:18:47;13.43;;;2.30;;
18188;SDS011;9219;50.396;8.546;2023-01-10T19:26:28;8.60;;;1.90;;
18188;SDS011;9219;50.396;8.546;2023-01-10T19:29:10;11.83;;;3.13;;
18188;SDS011;9219;50.396;8.546;2023-01-10T19:31:50;8.00;;;2.60;;
18188;SDS011;9219;50.396;8.546;2023-01-10T19:34:23;9.83;;;3.03;;
18188;SDS011;9219;50.396;8.546;2023-01-10T19:37:00;9.70;;;3.90;;
18188;SDS011;9219;50.396;8.546;2023-01-10T19:39:32;12.37;;;2.53;;
18188;SDS011;9219;50.396;8.546;2023-01-10T19:42:03;11.07;;;2.83;;
18188;SDS011;9219;50.396;8.546;2023-01-10T19:44:34;10.20;;;2.70;;
18188;SDS011;9219;50.396;8.546;2023-01-10T20:02:37;12.47;;;2.57;;
18188;SDS011;9219;50.396;8.546;2023-01-10T20:05:08;9.97;;;2.27;;
18188;SDS011;9219;50.396;8.546;2023-01-10T20:07:39;8.07;;;2.60;;
18188;SDS011;9219;50.396;8.546;2023-01-10T20:10:13;7.27;;;2.17;;
18188;SDS011;9219;50.396;8.546;2023-01-10T20:12:49;10.47;;;2.13;;